createdAt,value
2022-09-12T05:59:00.292Z,99.99
2022-09-12T05:59:33.254Z,99.99
2022-09-12T06:00:33.744Z,99.99
2022-09-12T06:01:33.414Z,99.99
2022-09-12T06:02:33.419Z,99.99
2022-09-12T06:03:33.454Z,99.99
2022-09-12T06:04:33.515Z,99.99
2022-09-12T06:05:33.537Z,99.99
2022-09-12T06:06:33.597Z,99.99
2022-09-12T06:07:33.642Z,99.99
2022-09-12T06:08:33.688Z,99.99
2022-09-12T06:09:33.777Z,99.99
2022-09-12T06:10:33.777Z,99.99
2022-09-12T06:11:33.825Z,99.99
2022-09-12T06:12:33.876Z,99.99
2022-09-12T06:13:33.918Z,99.99
2022-09-12T06:14:33.989Z,99.99
2022-09-12T06:15:34.016Z,99.99
2022-09-12T06:16:34.080Z,99.99
2022-09-12T06:17:34.138Z,99.99
2022-09-12T06:18:34.162Z,99.99
2022-09-12T06:19:34.210Z,99.99
2022-09-12T06:20:34.259Z,99.99
2022-09-12T06:21:34.340Z,99.99
2022-09-12T06:22:34.358Z,99.99
2022-09-12T06:23:34.405Z,99.99
2022-09-12T06:24:34.454Z,99.99
2022-09-12T06:25:34.496Z,99.99
2022-09-12T06:26:34.576Z,99.99
2022-09-12T06:27:34.604Z,99.99
2022-09-12T06:28:34.680Z,99.99
2022-09-12T06:29:34.691Z,99.99
2022-09-12T06:30:34.786Z,99.99
2022-09-12T06:31:34.823Z,99.99
2022-09-12T06:32:37.871Z,99.99
2022-09-12T06:33:34.889Z,99.99
2022-09-12T06:34:34.935Z,99.99
2022-09-12T06:35:34.985Z,99.99
2022-09-12T06:36:35.105Z,99.99
2022-09-12T06:37:35.118Z,99.99
2022-09-12T06:38:35.186Z,99.99
2022-09-12T06:39:35.178Z,99.99
2022-09-12T06:40:35.228Z,99.99
2022-09-12T06:41:35.305Z,99.99
2022-09-12T06:42:35.329Z,99.99
2022-09-12T06:43:35.391Z,99.99
2022-09-12T06:44:35.438Z,99.99
2022-09-12T06:45:35.477Z,99.99
2022-09-12T06:46:35.546Z,99.99
2022-09-12T06:47:35.571Z,99.99
2022-09-12T06:48:39.592Z,99.99
2022-09-12T06:49:35.700Z,99.99
2022-09-12T06:50:35.715Z,99.99
2022-09-12T06:51:35.770Z,99.99
2022-09-12T06:52:35.818Z,99.99
2022-09-12T06:53:35.866Z,99.99
2022-09-12T06:54:35.939Z,99.99
2022-09-12T06:55:36.812Z,99.99
2022-09-12T06:56:36.019Z,99.99
2022-09-12T06:57:36.072Z,99.99
2022-09-12T06:58:36.154Z,99.99
2022-09-12T06:59:36.190Z,99.99
2022-09-12T07:00:36.220Z,99.99
2022-09-12T07:01:36.314Z,99.99
2022-09-12T07:02:36.361Z,99.99
2022-09-12T07:03:36.365Z,99.99
2022-09-12T07:04:36.432Z,99.99
2022-09-12T07:05:36.461Z,99.99
2022-09-12T07:06:36.519Z,99.99
2022-09-12T07:07:36.567Z,99.99
2022-09-12T07:08:36.624Z,99.99
2022-09-12T07:09:36.691Z,99.99
2022-09-12T07:10:36.718Z,99.99
2022-09-12T07:11:36.795Z,99.99
2022-09-12T07:12:37.145Z,98.72
2022-09-12T07:13:36.872Z,99.54
2022-09-12T07:14:36.961Z,99.40
2022-09-12T07:15:36.988Z,97.96
2022-09-12T07:16:37.099Z,95.55
2022-09-12T07:17:37.080Z,96.61
2022-09-12T07:18:37.133Z,97.86
2022-09-12T07:19:37.219Z,97.91
2022-09-12T07:20:37.234Z,97.24
2022-09-12T07:21:37.317Z,98.05
2022-09-12T07:22:37.339Z,99.54
2022-09-12T07:23:37.393Z,98.19
2022-09-12T07:24:37.451Z,99.44
2022-09-12T07:25:37.532Z,98.44
2022-09-12T07:26:37.575Z,98.87
2022-09-12T07:27:37.898Z,97.19
2022-09-12T07:28:37.670Z,97.19
2022-09-12T07:29:38.131Z,97.09
2022-09-12T07:30:37.784Z,97.33
2022-09-12T07:31:37.809Z,96.51
2022-09-12T07:32:37.872Z,96.66
2022-09-12T07:33:37.950Z,96.46
2022-09-12T07:34:37.963Z,94.97
2022-09-12T07:35:38.016Z,95.07
2022-09-12T07:36:38.068Z,96.51
2022-09-12T07:37:38.145Z,96.12
2022-09-12T07:38:38.179Z,94.01
2022-09-12T07:39:38.282Z,93.81
2022-09-12T07:40:38.290Z,94.30
2022-09-12T07:41:38.341Z,94.78
2022-09-12T07:42:38.428Z,96.22
2022-09-12T07:43:38.439Z,98.00
2022-09-12T07:44:38.513Z,96.37
2022-09-12T07:45:38.554Z,94.68
2022-09-12T07:46:38.625Z,94.64
2022-09-12T07:47:38.653Z,94.97
2022-09-12T07:48:38.712Z,94.06
2022-09-12T07:49:38.790Z,93.91
2022-09-12T07:50:42.018Z,94.06
2022-09-12T07:51:38.869Z,92.37
2022-09-12T07:52:38.921Z,92.42
2022-09-12T07:53:38.972Z,97.09
2022-09-12T07:54:39.057Z,93.81
2022-09-12T07:55:39.083Z,94.97
2022-09-12T07:56:39.636Z,94.73
2022-09-12T07:57:39.197Z,94.10
2022-09-12T07:58:39.246Z,93.72
2022-09-12T07:59:52.492Z,92.37
2022-09-12T08:00:39.346Z,94.01
2022-09-12T08:01:39.454Z,93.19
2022-09-12T08:02:39.503Z,93.28
2022-09-12T08:03:39.511Z,94.78
2022-09-12T08:04:39.567Z,91.02
2022-09-12T08:05:39.626Z,93.91
2022-09-12T08:06:39.694Z,91.40
2022-09-12T08:07:39.726Z,91.06
2022-09-12T08:08:39.805Z,90.05
2022-09-12T08:09:39.835Z,93.28
2022-09-12T08:10:39.894Z,91.26
2022-09-12T08:11:39.944Z,93.62
2022-09-12T08:12:40.039Z,94.34
2022-09-12T08:13:40.090Z,94.29
2022-09-12T08:14:40.112Z,89.51
2022-09-12T08:15:40.179Z,92.89
2022-09-12T08:16:40.221Z,92.94
2022-09-12T08:17:40.275Z,92.36
2022-09-12T08:18:40.359Z,87.34
2022-09-12T08:19:40.377Z,87.01
2022-09-12T08:20:40.432Z,87.64
2022-09-12T08:21:40.487Z,90.06
2022-09-12T08:22:41.036Z,93.38
2022-09-12T08:23:40.617Z,93.09
2022-09-12T08:24:40.675Z,93.91
2022-09-12T08:25:40.706Z,90.77
2022-09-12T08:26:40.789Z,88.12
2022-09-12T08:27:40.815Z,92.02
2022-09-12T08:28:40.875Z,90.00
2022-09-12T08:29:40.928Z,91.83
2022-09-12T08:30:41.011Z,88.31
2022-09-12T08:31:41.070Z,89.14
2022-09-12T08:32:41.090Z,90.30
2022-09-12T08:33:41.147Z,89.62
2022-09-12T08:34:41.209Z,91.41
2022-09-12T08:35:41.290Z,92.22
2022-09-12T08:36:41.313Z,94.87
2022-09-12T08:37:41.366Z,95.45
2022-09-12T08:38:41.433Z,97.38
2022-09-12T08:39:41.540Z,95.54
2022-09-12T08:40:41.530Z,95.98
2022-09-12T08:41:41.586Z,91.06
2022-09-12T08:42:41.639Z,92.12
2022-09-12T08:43:41.727Z,89.86
2022-09-12T08:44:41.752Z,90.87
2022-09-12T08:45:41.826Z,94.92
2022-09-12T08:46:41.886Z,92.55
2022-09-12T08:47:41.942Z,90.09
2022-09-12T08:48:41.970Z,88.98
2022-09-12T08:49:42.026Z,91.92
2022-09-12T08:50:43.275Z,88.84
2022-09-12T08:51:42.179Z,90.97
2022-09-12T08:52:42.215Z,93.24
2022-09-12T08:53:42.265Z,94.97
2022-09-12T08:54:42.298Z,95.98
2022-09-12T08:55:42.356Z,98.87
2022-09-12T08:56:42.417Z,97.47
2022-09-12T08:57:42.495Z,95.07
2022-09-12T08:58:42.533Z,96.94
2022-09-12T08:59:42.586Z,97.33
2022-09-12T09:00:42.633Z,97.14
2022-09-12T09:01:42.793Z,98.10
2022-09-12T09:02:42.781Z,99.99
2022-09-12T09:03:42.801Z,99.11
2022-09-12T09:04:42.857Z,99.99
2022-09-12T09:05:42.911Z,98.68
2022-09-12T09:06:42.992Z,97.86
2022-09-12T09:07:43.018Z,96.08
2022-09-12T09:08:43.077Z,92.74
2022-09-12T09:09:43.131Z,93.33
2022-09-12T09:10:43.644Z,96.94
2022-09-12T09:11:43.274Z,93.23
2022-09-12T09:12:43.296Z,95.64
2022-09-12T09:13:43.351Z,94.87
2022-09-12T09:14:43.431Z,97.62
2022-09-12T09:15:43.479Z,94.96
2022-09-12T09:16:43.540Z,94.78
2022-09-12T09:17:43.583Z,97.04
2022-09-12T09:18:43.626Z,99.06
2022-09-12T09:19:44.948Z,99.59
2022-09-12T09:20:43.762Z,99.45
2022-09-12T09:21:43.794Z,99.60
2022-09-12T09:22:43.844Z,98.44
2022-09-12T09:23:44.021Z,96.70
2022-09-12T09:24:43.958Z,94.62
2022-09-12T09:25:44.050Z,94.10
2022-09-12T09:26:44.070Z,96.46
2022-09-12T09:27:44.149Z,93.81
2022-09-12T09:28:44.180Z,95.98
2022-09-12T09:29:44.241Z,99.99
2022-09-12T09:30:44.351Z,98.77
2022-09-12T09:31:44.402Z,99.99
2022-09-12T09:32:44.427Z,98.92
2022-09-12T09:33:44.489Z,98.58
2022-09-12T09:34:44.513Z,98.82
2022-09-12T09:35:44.570Z,99.99
2022-09-12T09:36:44.656Z,99.99
2022-09-12T09:37:44.685Z,95.31
2022-09-12T09:38:44.820Z,95.93
2022-09-12T09:39:44.833Z,96.27
2022-09-12T09:40:44.850Z,98.10
2022-09-12T09:41:44.903Z,99.84
2022-09-12T09:42:44.959Z,99.69
2022-09-12T09:43:45.041Z,99.99
2022-09-12T09:44:45.072Z,99.99
2022-09-12T09:45:47.371Z,97.77
2022-09-12T09:46:45.180Z,97.52
2022-09-12T09:47:45.229Z,98.68
2022-09-12T09:48:45.362Z,97.81
2022-09-12T09:49:45.348Z,99.07
2022-09-12T09:50:45.411Z,98.05
2022-09-12T09:51:45.480Z,96.75
2022-09-12T09:52:45.512Z,95.15
2022-09-12T09:53:45.589Z,94.34
2022-09-12T09:54:45.648Z,98.25
2022-09-12T09:55:45.680Z,97.52
2022-09-12T09:56:45.761Z,95.30
2022-09-12T09:57:45.788Z,94.33
2022-09-12T09:58:45.852Z,93.41
2022-09-12T09:59:45.927Z,94.57
2022-09-12T10:00:45.956Z,91.82
2022-09-12T10:01:46.042Z,95.20
2022-09-12T10:02:46.145Z,96.94
2022-09-12T10:03:46.210Z,94.33
2022-09-12T10:04:46.175Z,92.69
2022-09-12T10:05:46.238Z,93.47
2022-09-12T10:06:46.292Z,96.46
2022-09-12T10:07:46.374Z,94.48
2022-09-12T10:08:46.517Z,93.85
2022-09-12T10:09:46.457Z,95.20
2022-09-12T10:10:46.512Z,96.46
2022-09-12T10:11:46.570Z,96.75
2022-09-12T10:12:46.651Z,97.96
2022-09-12T10:13:46.748Z,99.99
2022-09-12T10:14:46.731Z,99.99
2022-09-12T10:15:46.905Z,97.28
2022-09-12T10:16:46.869Z,98.15
2022-09-12T10:17:46.935Z,98.29
2022-09-12T10:18:46.989Z,99.26
2022-09-12T10:19:55.967Z,97.86
2022-09-12T10:20:47.085Z,98.25
2022-09-12T10:21:47.126Z,96.03
2022-09-12T10:22:47.177Z,97.28
2022-09-12T10:23:47.366Z,96.70
2022-09-12T10:24:47.291Z,97.57
2022-09-12T10:25:47.347Z,99.21
2022-09-12T10:26:47.400Z,99.99
2022-09-12T10:27:47.455Z,97.72
2022-09-12T10:28:47.630Z,99.99
2022-09-12T10:29:47.571Z,99.99
2022-09-12T10:30:47.667Z,99.99
2022-09-12T10:31:47.703Z,99.99
2022-09-12T10:32:47.736Z,99.41
2022-09-12T10:33:47.838Z,99.94
2022-09-12T10:34:47.838Z,94.67
2022-09-12T10:35:47.906Z,92.35
2022-09-12T10:36:47.982Z,94.38
2022-09-12T10:37:52.156Z,94.82
2022-09-12T10:38:48.063Z,98.15
2022-09-12T10:39:48.149Z,98.25
2022-09-12T10:40:48.177Z,98.92
2022-09-12T10:41:48.253Z,99.07
2022-09-12T10:42:48.286Z,98.10
2022-09-12T10:43:48.456Z,97.28
2022-09-12T10:44:48.401Z,98.58
2022-09-12T10:45:48.506Z,97.42
2022-09-12T10:46:48.511Z,95.26
2022-09-12T10:47:48.564Z,98.20
2022-09-12T10:48:48.642Z,99.26
2022-09-12T10:49:48.734Z,99.07
2022-09-12T10:50:48.766Z,99.99
2022-09-12T10:51:48.798Z,95.16
2022-09-12T10:52:48.855Z,95.01
2022-09-12T10:53:49.040Z,94.82
2022-09-12T10:54:48.958Z,94.24
2022-09-12T10:55:49.020Z,95.98
2022-09-12T10:56:49.065Z,93.42
2022-09-12T10:57:49.131Z,94.39
2022-09-12T10:58:49.222Z,97.96
2022-09-12T10:59:49.244Z,98.54
2022-09-12T11:00:49.302Z,98.97
2022-09-12T11:01:49.455Z,99.16
2022-09-12T11:02:49.538Z,99.99
2022-09-12T11:03:49.500Z,99.99
2022-09-12T11:04:49.532Z,99.99
2022-09-12T11:05:49.608Z,98.87
2022-09-12T11:06:49.663Z,99.74
2022-09-12T11:07:49.694Z,99.99
2022-09-12T11:08:49.751Z,99.84
2022-09-12T11:09:49.834Z,99.99
2022-09-12T11:10:49.866Z,99.99
2022-09-12T11:11:49.915Z,99.99
2022-09-12T11:12:49.976Z,99.99
2022-09-12T11:13:50.032Z,99.99
2022-09-12T11:14:50.118Z,98.39
2022-09-12T11:15:50.190Z,99.35
2022-09-12T11:16:50.199Z,98.92
2022-09-12T11:17:50.255Z,99.79
2022-09-12T11:18:50.310Z,98.73
2022-09-12T11:19:50.400Z,95.40
2022-09-12T11:20:50.424Z,90.95
2022-09-12T11:21:50.482Z,90.27
2022-09-12T11:22:50.541Z,90.56
2022-09-12T11:23:50.612Z,90.27
2022-09-12T11:24:50.682Z,92.25
2022-09-12T11:25:50.714Z,91.08
2022-09-12T11:26:50.799Z,89.15
2022-09-12T11:27:50.852Z,90.45
2022-09-12T11:28:50.889Z,87.54
2022-09-12T11:29:50.948Z,87.10
2022-09-12T11:30:51.051Z,86.37
2022-09-12T11:31:51.063Z,84.14
2022-09-12T11:32:51.140Z,82.44
2022-09-12T11:33:53.129Z,81.65
2022-09-12T11:34:51.238Z,85.88
2022-09-12T11:35:55.192Z,90.67
2022-09-12T11:36:51.359Z,91.78
2022-09-12T11:37:51.437Z,90.19
2022-09-12T11:38:51.507Z,92.89
2022-09-12T11:39:55.385Z,94.14
2022-09-12T11:40:51.588Z,91.58
2022-09-12T11:41:51.651Z,91.82
2022-09-12T11:42:51.706Z,89.98
2022-09-12T11:43:51.797Z,89.22
2022-09-12T11:44:51.859Z,90.09
2022-09-12T11:45:51.909Z,91.15
2022-09-12T11:46:52.344Z,91.91
2022-09-12T11:47:52.001Z,89.89
2022-09-12T11:48:52.092Z,89.89
2022-09-12T11:49:52.120Z,89.59
2022-09-12T11:50:52.183Z,89.84
2022-09-12T11:51:52.237Z,91.25
2022-09-12T11:52:52.295Z,91.92
2022-09-12T11:53:52.380Z,93.47
2022-09-12T11:54:53.882Z,92.74
2022-09-12T11:55:52.471Z,91.77
2022-09-12T11:56:52.528Z,92.60
2022-09-12T11:57:52.586Z,92.65
2022-09-12T11:58:52.666Z,95.35
2022-09-12T11:59:52.732Z,94.82
2022-09-12T12:00:52.763Z,95.50
2022-09-12T12:01:52.820Z,95.40
2022-09-12T12:02:52.889Z,94.29
2022-09-12T12:03:52.985Z,93.66
2022-09-12T12:04:53.036Z,92.60
2022-09-12T12:05:53.077Z,94.19
2022-09-12T12:06:53.117Z,93.90
2022-09-12T12:07:53.173Z,94.24
2022-09-12T12:08:53.257Z,92.93
2022-09-12T12:09:53.290Z,90.41
2022-09-12T12:10:53.351Z,90.22
2022-09-12T12:11:53.438Z,90.66
2022-09-12T12:12:53.467Z,92.06
2022-09-12T12:13:53.549Z,92.00
2022-09-12T12:14:53.597Z,91.62
2022-09-12T12:15:53.710Z,89.63
2022-09-12T12:16:53.734Z,89.34
2022-09-12T12:17:53.764Z,90.74
2022-09-12T12:18:53.824Z,89.19
2022-09-12T12:19:53.889Z,89.25
2022-09-12T12:20:53.942Z,94.34
2022-09-12T12:21:54.045Z,95.54
2022-09-12T12:22:54.087Z,98.05
2022-09-12T12:23:54.147Z,98.34
2022-09-12T12:24:54.186Z,97.19
2022-09-12T12:25:54.245Z,93.56
2022-09-12T12:26:54.309Z,92.74
2022-09-12T12:27:54.359Z,92.98
2022-09-12T12:28:54.447Z,95.25
2022-09-12T12:29:54.485Z,95.25
2022-09-12T12:30:54.565Z,94.57
2022-09-12T12:31:54.612Z,93.56
2022-09-12T12:32:54.702Z,91.82
2022-09-12T12:33:54.728Z,91.28
2022-09-12T12:34:54.808Z,90.75
2022-09-12T12:35:54.842Z,88.47
2022-09-12T12:36:54.899Z,89.11
2022-09-12T12:37:54.958Z,90.17
2022-09-12T12:38:55.039Z,89.11
2022-09-12T12:39:55.123Z,87.45
2022-09-12T12:40:55.137Z,83.77
2022-09-12T12:41:55.200Z,84.84
2022-09-12T12:42:55.252Z,87.03
2022-09-12T12:43:55.345Z,89.54
2022-09-12T12:44:55.372Z,86.60
2022-09-12T12:45:55.469Z,88.39
2022-09-12T12:46:55.495Z,91.00
2022-09-12T12:47:55.557Z,88.97
2022-09-12T12:48:55.653Z,90.75
2022-09-12T12:49:55.679Z,89.01
2022-09-12T12:50:55.735Z,88.05
2022-09-12T12:51:55.832Z,88.10
2022-09-12T12:52:55.865Z,90.03
2022-09-12T12:53:55.917Z,89.79
2022-09-12T12:54:55.977Z,90.57
2022-09-12T12:55:56.055Z,94.14
2022-09-12T12:56:56.095Z,94.53
2022-09-12T12:57:56.157Z,89.21
2022-09-12T12:58:56.213Z,86.74
2022-09-12T12:59:56.274Z,85.42
2022-09-12T13:00:56.369Z,84.61
2022-09-12T13:01:56.446Z,81.46
2022-09-12T13:02:56.507Z,83.84
2022-09-12T13:03:56.517Z,83.78
2022-09-12T13:04:56.573Z,85.42
2022-09-12T13:05:56.660Z,86.10
2022-09-12T13:06:56.736Z,86.83
2022-09-12T13:07:56.755Z,85.39
2022-09-12T13:08:56.831Z,84.57
2022-09-12T13:09:56.879Z,84.57
2022-09-12T13:10:56.957Z,83.45
2022-09-12T13:11:57.028Z,85.62
2022-09-12T13:12:57.068Z,85.62
2022-09-12T13:13:57.120Z,85.14
2022-09-12T13:14:57.178Z,86.58
2022-09-12T13:15:57.297Z,83.62
2022-09-12T13:16:57.331Z,81.83
2022-09-12T13:17:57.388Z,82.60
2022-09-12T13:18:57.417Z,83.59
2022-09-12T13:20:23.650Z,84.94
2022-09-12T13:20:57.544Z,85.29
2022-09-12T13:21:57.614Z,86.20
2022-09-12T13:22:57.669Z,87.07
2022-09-12T13:23:57.727Z,85.33
2022-09-12T13:24:57.821Z,85.33
2022-09-12T13:25:57.851Z,85.93
2022-09-12T13:26:57.921Z,86.21
2022-09-12T13:27:57.972Z,86.55
2022-09-12T13:28:58.034Z,84.89
2022-09-12T13:29:58.707Z,84.89
2022-09-12T13:30:58.215Z,85.42
2022-09-12T13:31:58.225Z,86.98
2022-09-12T13:32:58.284Z,88.09
2022-09-12T13:33:58.344Z,85.57
2022-09-12T13:34:58.432Z,83.37
2022-09-12T13:35:58.466Z,82.01
2022-09-12T13:36:58.530Z,80.93
2022-09-12T13:37:58.595Z,77.32
2022-09-12T13:38:58.654Z,76.15
2022-09-12T13:39:58.794Z,77.16
2022-09-12T13:40:58.778Z,78.66
2022-09-12T13:41:58.841Z,79.76
2022-09-12T13:42:58.911Z,79.49
2022-09-12T13:43:58.966Z,78.48
2022-09-12T13:44:59.062Z,81.25
2022-09-12T13:45:59.145Z,82.37
2022-09-12T13:46:59.160Z,85.08
2022-09-12T13:47:59.224Z,84.25
2022-09-12T13:48:59.288Z,82.84
2022-09-12T13:49:59.398Z,81.37
2022-09-12T13:50:59.414Z,79.12
2022-09-12T13:51:59.485Z,76.78
2022-09-12T13:52:59.534Z,76.79
2022-09-12T13:53:59.608Z,79.50
2022-09-12T13:54:59.699Z,79.22
2022-09-12T13:55:59.724Z,79.22
2022-09-12T13:56:59.793Z,79.99
2022-09-12T13:57:59.853Z,79.55
2022-09-12T13:58:59.912Z,76.64
2022-09-12T14:00:00.008Z,76.12
2022-09-12T14:01:00.050Z,76.60
2022-09-12T14:02:00.205Z,75.63
2022-09-12T14:03:00.240Z,76.41
2022-09-12T14:04:00.232Z,73.79
2022-09-12T14:05:00.318Z,76.15
2022-09-12T14:06:00.382Z,74.54
2022-09-12T14:07:00.444Z,76.25
2022-09-12T14:08:00.487Z,73.79
2022-09-12T14:09:00.551Z,74.47
2022-09-12T14:10:00.615Z,75.24
2022-09-12T14:11:00.681Z,75.24
2022-09-12T14:12:00.761Z,77.67
2022-09-12T14:13:00.802Z,78.05
2022-09-12T14:14:00.866Z,75.67
2022-09-12T14:15:00.928Z,74.41
2022-09-12T14:16:01.026Z,72.31
2022-09-12T14:17:01.081Z,71.77
2022-09-12T14:18:01.133Z,70.92
2022-09-12T14:19:01.182Z,70.83
2022-09-12T14:20:01.244Z,71.34
2022-09-12T14:21:01.339Z,70.99
2022-09-12T14:22:01.368Z,70.83
2022-09-12T14:23:01.436Z,68.79
2022-09-12T14:24:01.528Z,70.93
2022-09-12T14:25:01.564Z,70.09
2022-09-12T14:26:01.655Z,70.26
2022-09-12T14:27:01.689Z,70.49
2022-09-12T14:28:01.762Z,67.08
2022-09-12T14:29:01.817Z,67.50
2022-09-12T14:30:01.919Z,69.57
2022-09-12T14:31:02.005Z,70.76
2022-09-12T14:32:02.010Z,70.64
2022-09-12T14:33:02.067Z,71.42
2022-09-12T14:34:02.136Z,71.20
2022-09-12T14:35:02.198Z,71.33
2022-09-12T14:36:02.306Z,70.94
2022-09-12T14:37:02.327Z,68.41
2022-09-12T14:38:02.413Z,69.93
2022-09-12T14:39:02.459Z,70.61
2022-09-12T14:40:02.747Z,70.54
2022-09-12T14:41:02.584Z,71.51
2022-09-12T14:42:02.649Z,71.78
2022-09-12T14:43:02.719Z,71.52
2022-09-12T14:44:02.786Z,70.65
2022-09-12T14:45:02.874Z,70.78
2022-09-12T14:46:02.969Z,70.90
2022-09-12T14:47:02.976Z,71.26
2022-09-12T14:48:03.033Z,71.20
2022-09-12T14:49:03.097Z,69.84
2022-09-12T14:50:03.188Z,69.45
2022-09-12T14:51:03.229Z,69.48
2022-09-12T14:52:03.310Z,68.44
2022-09-12T14:53:03.356Z,70.09
2022-09-12T14:54:03.430Z,71.84
2022-09-12T14:55:03.492Z,71.20
2022-09-12T14:56:03.553Z,71.48
2022-09-12T14:57:03.662Z,70.87
2022-09-12T14:58:03.679Z,70.62
2022-09-12T14:59:03.744Z,69.74
2022-09-12T15:00:03.832Z,68.84
2022-09-12T15:01:03.882Z,68.32
2022-09-12T15:02:03.998Z,66.76
2022-09-12T15:03:04.043Z,68.29
2022-09-12T15:04:04.165Z,70.04
2022-09-12T15:05:04.131Z,69.81
2022-09-12T15:06:04.196Z,69.48
2022-09-12T15:07:04.265Z,70.67
2022-09-12T15:08:04.350Z,70.36
2022-09-12T15:09:04.388Z,69.77
2022-09-12T15:10:04.452Z,69.38
2022-09-12T15:11:04.513Z,69.67
2022-09-12T15:12:04.579Z,69.96
2022-09-12T15:13:04.676Z,69.48
2022-09-12T15:14:04.740Z,69.81
2022-09-12T15:15:04.773Z,69.32
2022-09-12T15:16:04.899Z,70.00
2022-09-12T15:17:04.902Z,68.90
2022-09-12T15:18:06.757Z,67.60
2022-09-12T15:19:05.063Z,66.89
2022-09-12T15:20:05.092Z,67.08
2022-09-12T15:21:05.168Z,67.93
2022-09-12T15:22:05.245Z,65.14
2022-09-12T15:23:05.285Z,63.64
2022-09-12T15:24:05.374Z,63.38
2022-09-12T15:25:05.439Z,63.96
2022-09-12T15:26:05.517Z,62.53
2022-09-12T15:27:05.543Z,65.56
2022-09-12T15:28:05.611Z,65.23
2022-09-12T15:29:05.687Z,63.64
2022-09-12T15:30:05.744Z,68.13
2022-09-12T15:31:05.897Z,68.68
2022-09-12T15:32:05.907Z,69.62
2022-09-12T15:33:05.934Z,72.22
2022-09-12T15:34:06.003Z,71.83
2022-09-12T15:35:06.077Z,70.27
2022-09-12T15:36:06.133Z,70.47
2022-09-12T15:37:06.226Z,70.43
2022-09-12T15:38:06.271Z,71.01
2022-09-12T15:39:06.330Z,72.34
2022-09-12T15:40:06.457Z,70.98
2022-09-12T15:41:06.460Z,70.30
2022-09-12T15:42:06.554Z,71.50
2022-09-12T15:43:06.588Z,70.47
2022-09-12T15:44:06.742Z,70.53
2022-09-12T15:45:06.720Z,68.45
2022-09-12T15:46:06.841Z,70.30
2022-09-12T15:47:06.875Z,70.14
2022-09-12T15:48:06.935Z,70.23
2022-09-12T15:49:06.991Z,69.39
2022-09-12T15:50:07.052Z,68.74
2022-09-12T15:51:07.129Z,70.40
2022-09-12T15:52:07.172Z,71.08
2022-09-12T15:53:07.247Z,70.27
2022-09-12T15:54:07.312Z,70.72
2022-09-12T15:55:07.371Z,73.08
2022-09-12T15:56:07.658Z,75.97
2022-09-12T15:57:07.496Z,77.10
2022-09-12T15:58:07.634Z,79.74
2022-09-12T15:59:07.629Z,81.51
2022-09-12T16:00:07.692Z,80.30
2022-09-12T16:01:07.789Z,81.13
2022-09-12T16:02:07.826Z,82.17
2022-09-12T16:03:07.943Z,85.03
2022-09-12T16:04:07.946Z,83.83
2022-09-12T16:05:08.011Z,86.44
2022-09-12T16:06:08.187Z,84.84
2022-09-12T16:07:08.129Z,88.53
2022-09-12T16:08:08.217Z,88.39
2022-09-12T16:09:08.257Z,87.71
2022-09-12T16:10:08.321Z,87.18
2022-09-12T16:11:08.384Z,89.11
2022-09-12T16:12:08.461Z,90.27
2022-09-12T16:13:08.494Z,88.29
2022-09-12T16:14:08.581Z,90.23
2022-09-12T16:15:08.617Z,88.68
2022-09-12T16:16:08.732Z,90.52
2022-09-12T16:17:08.765Z,92.25
2022-09-12T16:18:08.787Z,89.65
2022-09-12T16:19:08.874Z,91.09
2022-09-12T16:20:08.911Z,89.89
2022-09-12T16:21:12.796Z,90.86
2022-09-12T16:22:09.025Z,92.89
2022-09-12T16:23:09.087Z,90.91
2022-09-12T16:24:09.170Z,91.59
2022-09-12T16:25:09.194Z,92.74
2022-09-12T16:26:09.240Z,93.62
2022-09-12T16:27:09.307Z,94.92
2022-09-12T16:28:09.354Z,94.10
2022-09-12T16:29:09.449Z,93.08
2022-09-12T16:30:09.459Z,95.79
2022-09-12T16:31:09.545Z,92.60
2022-09-12T16:32:09.567Z,95.93
2022-09-12T16:33:09.684Z,95.35
2022-09-12T16:34:09.688Z,94.29
2022-09-12T16:35:09.734Z,96.17
2022-09-12T16:36:09.785Z,95.98
2022-09-12T16:37:09.842Z,97.33
2022-09-12T16:38:09.927Z,98.00
2022-09-12T16:39:09.950Z,96.75
2022-09-12T16:40:10.074Z,97.24
2022-09-12T16:41:10.060Z,97.24
2022-09-12T16:42:10.135Z,96.08
2022-09-12T16:43:10.195Z,98.10
2022-09-12T16:44:10.220Z,96.75
2022-09-12T16:45:10.275Z,98.63
2022-09-12T16:46:10.361Z,94.58
2022-09-12T16:47:10.383Z,94.48
2022-09-12T16:48:10.460Z,93.33
2022-09-12T16:49:10.495Z,96.89
2022-09-12T16:50:10.545Z,95.16
2022-09-12T16:51:10.630Z,94.87
2022-09-12T16:52:10.651Z,96.99
2022-09-12T16:53:10.702Z,96.51
2022-09-12T16:54:10.780Z,95.93
2022-09-12T16:55:10.810Z,97.38
2022-09-12T16:56:10.861Z,99.21
2022-09-12T16:57:10.926Z,99.02
2022-09-12T16:58:10.971Z,99.99
2022-09-12T16:59:11.046Z,99.99
2022-09-12T17:00:11.082Z,99.99
2022-09-12T17:01:11.136Z,99.99
2022-09-12T17:02:11.204Z,99.99
2022-09-12T17:03:11.261Z,99.99
2022-09-12T17:04:11.297Z,99.99
2022-09-12T17:05:11.364Z,99.99
2022-09-12T17:06:11.401Z,99.99
2022-09-12T17:07:11.447Z,99.99
2022-09-12T17:08:11.500Z,99.99
2022-09-12T17:09:11.581Z,99.99
2022-09-12T17:10:11.608Z,99.99
2022-09-12T17:11:11.660Z,99.99
2022-09-12T17:12:11.717Z,99.99
2022-09-12T17:13:11.773Z,99.99
2022-09-12T17:14:12.082Z,99.99
2022-09-12T17:15:11.868Z,99.99
2022-09-12T17:16:11.983Z,99.99
2022-09-12T17:17:11.974Z,99.99
2022-09-12T17:18:12.029Z,99.99
2022-09-12T17:19:12.080Z,99.99
2022-09-12T17:20:12.174Z,99.99
2022-09-12T17:21:12.182Z,99.99
2022-09-12T17:22:12.235Z,99.99
2022-09-12T17:23:12.289Z,99.99
2022-09-12T17:24:12.347Z,99.99
2022-09-12T17:25:12.416Z,99.99
2022-09-12T17:26:12.455Z,99.99
2022-09-12T17:27:12.522Z,99.99
2022-09-12T17:28:12.549Z,99.99
2022-09-12T17:29:12.602Z,99.99
2022-09-12T17:30:12.653Z,99.99
2022-09-12T17:31:12.772Z,99.99
2022-09-12T17:32:16.926Z,99.99
2022-09-12T17:33:12.811Z,99.99
2022-09-12T17:34:12.860Z,99.99
2022-09-12T17:35:12.921Z,99.99
2022-09-12T17:36:12.987Z,99.99
2022-09-12T17:37:13.046Z,99.99
2022-09-12T17:38:17.337Z,99.99
2022-09-12T17:39:13.126Z,99.99
2022-09-12T17:40:13.234Z,99.99
2022-09-12T17:41:13.231Z,99.99
2022-09-12T17:42:13.301Z,99.99
2022-09-12T17:43:13.330Z,99.99
2022-09-12T17:44:13.381Z,99.99
2022-09-12T17:45:17.792Z,99.99
2022-09-12T17:46:13.530Z,99.99
2022-09-12T17:47:13.545Z,99.99
2022-09-12T17:48:13.596Z,99.99
2022-09-12T17:49:13.646Z,99.99
2022-09-12T17:50:30.972Z,99.99
2022-09-12T17:51:13.746Z,99.99
2022-09-12T17:52:13.799Z,99.99
2022-09-12T17:53:13.851Z,99.99
2022-09-12T17:54:13.931Z,99.99
2022-09-12T17:55:13.958Z,99.99
2022-09-12T17:56:14.005Z,99.99
2022-09-12T17:57:14.092Z,99.99
2022-09-12T17:58:14.107Z,99.99
2022-09-12T17:59:14.170Z,99.99
2022-09-12T18:00:14.229Z,99.99
2022-09-12T18:01:14.272Z,99.99
2022-09-12T18:02:14.405Z,99.99
2022-09-12T18:03:14.415Z,99.99
2022-09-12T18:04:14.418Z,99.99
2022-09-12T18:05:14.517Z,99.99
2022-09-12T18:06:14.554Z,99.99
2022-09-12T18:07:14.602Z,99.99
2022-09-12T18:08:14.632Z,99.99
2022-09-12T18:09:14.672Z,99.99
2022-09-12T18:10:14.728Z,99.99
2022-09-12T18:11:14.785Z,99.99
2022-09-12T18:12:14.851Z,99.99
2022-09-12T18:13:14.880Z,99.99
2022-09-12T18:14:14.956Z,99.99
2022-09-12T18:15:14.992Z,99.99
2022-09-12T18:16:15.084Z,99.99
2022-09-12T18:17:15.085Z,99.99
2022-09-12T18:18:15.137Z,99.99
2022-09-12T18:19:15.216Z,99.99
2022-09-12T18:20:15.254Z,99.99
2022-09-12T18:21:15.317Z,99.99
2022-09-12T18:22:15.371Z,99.99
2022-09-12T18:23:15.395Z,99.99
2022-09-12T18:24:15.439Z,99.99
2022-09-12T18:25:15.539Z,99.99
2022-09-12T18:26:15.572Z,99.99
2022-09-12T18:27:15.595Z,99.99
2022-09-12T18:28:15.678Z,99.99
2022-09-12T18:29:15.716Z,99.99
2022-09-12T18:30:21.619Z,99.99
2022-09-12T18:31:15.832Z,99.99
2022-09-12T18:32:15.855Z,99.99
2022-09-12T18:33:15.909Z,99.99
2022-09-12T18:34:15.978Z,99.99
2022-09-12T18:35:16.008Z,99.99
2022-09-12T18:36:16.053Z,99.99
2022-09-12T18:37:16.099Z,99.99
2022-09-12T18:38:16.157Z,99.99
2022-09-12T18:39:16.268Z,99.99
2022-09-12T18:40:16.290Z,99.99
2022-09-12T18:41:16.307Z,99.99
2022-09-12T18:42:16.355Z,99.99
2022-09-12T18:43:16.412Z,99.99
2022-09-12T18:44:16.495Z,99.99
2022-09-12T18:45:16.510Z,99.99
2022-09-12T18:46:16.646Z,99.99
2022-09-12T18:47:16.632Z,99.99
2022-09-12T18:48:16.700Z,99.99
2022-09-12T18:49:16.744Z,99.99
2022-09-12T18:50:16.769Z,99.99
2022-09-12T18:51:16.816Z,99.99